createdAt,value
2019-01-04T00:00:18.673Z,7.60
2019-01-04T00:02:44.619Z,31.07
2019-01-04T00:05:12.780Z,37.33
2019-01-04T00:07:39.478Z,10.73
2019-01-04T00:10:05.522Z,4.43
2019-01-04T00:12:32.683Z,4.23
2019-01-04T00:14:58.704Z,3.17
2019-01-04T00:17:24.641Z,4.07
2019-01-04T00:19:50.970Z,5.47
2019-01-04T00:22:17.157Z,6.00
2019-01-04T00:24:43.100Z,5.43
2019-01-04T00:27:09.035Z,3.63
2019-01-04T00:29:35.017Z,4.63
2019-01-04T00:32:00.979Z,8.03
2019-01-04T00:34:27.034Z,5.90
2019-01-04T00:36:53.049Z,5.30
2019-01-04T00:39:20.387Z,6.10
2019-01-04T00:41:46.424Z,5.80
2019-01-04T00:44:12.409Z,7.23
2019-01-04T00:46:38.342Z,9.90
2019-01-04T00:49:04.288Z,5.13
2019-01-04T00:51:30.273Z,5.67
2019-01-04T00:53:56.226Z,5.53
2019-01-04T00:56:32.291Z,5.90
2019-01-04T00:59:05.138Z,6.27
2019-01-04T01:01:37.790Z,7.33
2019-01-04T01:04:29.345Z,5.00
2019-01-04T01:07:28.680Z,4.23
2019-01-04T01:09:58.432Z,3.47
2019-01-04T01:12:46.555Z,4.17
2019-01-04T01:15:25.522Z,4.97
2019-01-04T01:18:18.067Z,4.87
2019-01-04T01:21:10.722Z,4.87
2019-01-04T01:23:58.657Z,5.73
2019-01-04T01:26:46.143Z,5.40
2019-01-04T01:29:38.898Z,6.37
2019-01-04T01:32:34.545Z,5.60
2019-01-04T01:35:38.379Z,8.60
2019-01-04T01:38:32.050Z,6.40
2019-01-04T01:41:37.488Z,5.20
2019-01-04T01:44:30.450Z,5.23
2019-01-04T01:47:09.394Z,6.50
2019-01-04T01:49:42.038Z,8.43
2019-01-04T01:52:17.820Z,8.73
2019-01-04T01:54:44.080Z,9.40
2019-01-04T01:57:10.210Z,10.17
2019-01-04T01:59:36.241Z,13.03
2019-01-04T02:02:02.273Z,14.33
2019-01-04T02:04:28.204Z,12.43
2019-01-04T02:06:57.080Z,14.53
2019-01-04T02:09:24.813Z,13.83
2019-01-04T02:11:50.747Z,16.67
2019-01-04T02:14:17.004Z,16.30
2019-01-04T02:16:42.951Z,18.43
2019-01-04T02:19:08.887Z,17.37
2019-01-04T02:21:36.879Z,15.93
2019-01-04T02:24:02.826Z,22.00
2019-01-04T02:26:29.780Z,22.13
2019-01-04T02:28:55.798Z,21.10
2019-01-04T02:31:22.645Z,17.60
2019-01-04T02:33:48.595Z,14.67
2019-01-04T02:36:15.013Z,12.83
2019-01-04T02:38:40.959Z,15.17
2019-01-04T02:41:06.904Z,10.17
2019-01-04T02:43:32.888Z,9.67
2019-01-04T02:45:59.936Z,9.80
2019-01-04T02:48:25.891Z,7.83
2019-01-04T02:50:53.015Z,4.07
2019-01-04T02:53:18.960Z,4.13
2019-01-04T02:55:46.511Z,3.53
2019-01-04T02:58:12.489Z,3.33
2019-01-04T03:00:38.636Z,4.27
2019-01-04T03:03:04.574Z,4.17
2019-01-04T03:05:30.830Z,5.13
2019-01-04T03:07:56.739Z,3.03
2019-01-04T03:10:22.690Z,5.23
2019-01-04T03:12:48.713Z,4.30
2019-01-04T03:15:14.668Z,4.10
2019-01-04T03:17:40.609Z,4.60
2019-01-04T03:20:06.606Z,5.33
2019-01-04T03:22:33.188Z,4.33
2019-01-04T03:24:59.073Z,4.00
2019-01-04T03:27:25.060Z,3.93
2019-01-04T03:29:51.011Z,5.67
2019-01-04T03:32:16.967Z,5.77
2019-01-04T03:34:43.182Z,3.67
2019-01-04T03:37:09.109Z,3.83
2019-01-04T03:39:35.051Z,3.57
2019-01-04T03:42:01.038Z,4.70
2019-01-04T03:44:27.040Z,3.23
2019-01-04T03:46:53.026Z,3.80
2019-01-04T03:49:18.999Z,2.60
2019-01-04T03:51:44.936Z,4.40
2019-01-04T03:54:10.897Z,3.10
2019-01-04T03:56:36.887Z,3.13
2019-01-04T03:59:02.899Z,7.23
2019-01-04T04:01:29.103Z,4.23
2019-01-04T04:03:55.096Z,6.77
2019-01-04T04:06:21.025Z,6.70
2019-01-04T04:08:46.959Z,5.47
2019-01-04T04:11:13.596Z,3.17
2019-01-04T04:13:39.535Z,5.40
2019-01-04T04:16:05.480Z,3.70
2019-01-04T04:18:32.390Z,4.73
2019-01-04T04:20:58.340Z,3.00
2019-01-04T04:23:24.669Z,3.33
2019-01-04T04:25:50.653Z,3.93
2019-01-04T04:28:16.788Z,3.43
2019-01-04T04:30:42.720Z,4.53
2019-01-04T04:33:08.709Z,3.63
2019-01-04T04:35:34.666Z,2.17
2019-01-04T04:38:00.606Z,4.50
2019-01-04T04:40:26.625Z,3.37
2019-01-04T04:42:52.552Z,4.17
2019-01-04T04:45:18.501Z,7.20
2019-01-04T04:47:45.381Z,2.60
2019-01-04T04:50:13.220Z,3.83
2019-01-04T04:52:39.341Z,6.23
2019-01-04T04:55:05.320Z,3.40
2019-01-04T04:57:31.362Z,3.90
2019-01-04T04:59:57.301Z,4.83
2019-01-04T05:02:23.310Z,3.23
2019-01-04T05:04:49.246Z,4.50
2019-01-04T05:07:15.390Z,4.57
2019-01-04T05:09:41.872Z,3.83
2019-01-04T05:12:07.807Z,2.57
2019-01-04T05:14:33.848Z,3.60
2019-01-04T05:16:59.830Z,4.53
2019-01-04T05:19:25.851Z,4.83
2019-01-04T05:21:51.851Z,3.10
2019-01-04T05:24:18.120Z,3.93
2019-01-04T05:26:45.548Z,2.33
2019-01-04T05:29:11.523Z,4.60
2019-01-04T05:31:37.708Z,2.90
2019-01-04T05:34:04.055Z,4.33
2019-01-04T05:36:30.194Z,5.93
2019-01-04T05:38:56.393Z,7.23
2019-01-04T05:41:22.330Z,9.00
2019-01-04T05:43:48.575Z,9.73
2019-01-04T05:46:14.583Z,6.97
2019-01-04T05:48:40.520Z,5.40
2019-01-04T05:51:06.517Z,4.07
2019-01-04T05:53:32.648Z,4.17
2019-01-04T05:55:58.776Z,7.83
2019-01-04T05:58:25.283Z,19.97
2019-01-04T06:00:51.336Z,46.87
2019-01-04T06:03:17.761Z,14.00
2019-01-04T06:05:43.711Z,6.73
2019-01-04T06:08:10.804Z,3.07
2019-01-04T06:10:36.789Z,4.13
2019-01-04T06:13:02.736Z,5.63
2019-01-04T06:15:28.727Z,5.27
2019-01-04T06:17:54.674Z,2.80
2019-01-04T06:20:20.627Z,4.53
2019-01-04T06:22:46.618Z,5.13
2019-01-04T06:25:13.464Z,8.23
2019-01-04T06:27:39.466Z,7.97
2019-01-04T06:30:07.497Z,4.23
2019-01-04T06:32:33.444Z,7.43
2019-01-04T06:35:00.050Z,8.13
2019-01-04T06:37:26.054Z,10.47
2019-01-04T06:39:51.994Z,2.60
2019-01-04T06:42:17.951Z,5.97
2019-01-04T06:44:44.352Z,11.87
2019-01-04T06:47:12.768Z,34.70
2019-01-04T06:49:38.811Z,13.57
2019-01-04T06:52:05.876Z,4.63
2019-01-04T06:55:09.355Z,3.93
2019-01-04T06:57:35.341Z,3.43
2019-01-04T07:00:04.313Z,4.40
2019-01-04T07:02:31.668Z,4.13
2019-01-04T07:04:57.666Z,4.77
2019-01-04T07:07:23.922Z,4.00
2019-01-04T07:09:50.251Z,3.83
2019-01-04T07:12:16.408Z,4.00
2019-01-04T07:14:42.664Z,2.30
2019-01-04T07:17:08.633Z,3.03
2019-01-04T07:19:34.946Z,3.20
2019-01-04T07:22:01.005Z,4.10
2019-01-04T07:24:27.262Z,3.50
2019-01-04T07:26:53.320Z,3.70
2019-01-04T07:29:19.264Z,2.03
2019-01-04T07:31:45.983Z,3.57
2019-01-04T07:34:12.905Z,4.27
2019-01-04T07:36:38.977Z,4.33
2019-01-04T07:39:05.139Z,4.23
2019-01-04T07:41:31.133Z,4.83
2019-01-04T07:43:57.082Z,4.40
2019-01-04T07:46:23.373Z,4.43
2019-01-04T07:48:49.839Z,6.63
2019-01-04T07:51:17.718Z,4.00
2019-01-04T07:53:43.670Z,5.50
2019-01-04T07:56:10.350Z,3.37
2019-01-04T07:58:36.943Z,6.47
2019-01-04T08:01:03.284Z,5.47
2019-01-04T08:03:29.285Z,4.97
2019-01-04T08:05:55.255Z,4.97
2019-01-04T08:08:21.201Z,5.87
2019-01-04T08:10:47.194Z,5.80
2019-01-04T08:13:13.944Z,15.10
2019-01-04T08:15:39.888Z,4.70
2019-01-04T08:18:07.012Z,6.10
2019-01-04T08:20:33.401Z,5.23
2019-01-04T08:22:59.353Z,7.03
2019-01-04T08:25:25.746Z,9.93
2019-01-04T08:27:51.761Z,6.17
2019-01-04T08:30:17.710Z,8.07
2019-01-04T08:32:43.684Z,8.00
2019-01-04T08:35:09.925Z,7.40
2019-01-04T08:37:35.886Z,5.73
2019-01-04T08:40:02.097Z,14.67
2019-01-04T08:42:28.384Z,9.53
2019-01-04T08:44:55.232Z,11.80
2019-01-04T08:47:21.348Z,8.97
2019-01-04T08:49:48.502Z,6.20
2019-01-04T08:52:14.454Z,6.70
2019-01-04T08:54:40.744Z,8.27
2019-01-04T08:57:06.674Z,8.37
2019-01-04T08:59:32.732Z,5.53
2019-01-04T09:01:59.045Z,7.37
2019-01-04T09:04:25.293Z,5.63
2019-01-04T09:06:52.337Z,8.00
2019-01-04T09:09:18.321Z,9.20
2019-01-04T09:11:44.447Z,6.87
2019-01-04T09:14:10.436Z,7.50
2019-01-04T09:16:36.420Z,7.30
2019-01-04T09:19:02.366Z,9.07
2019-01-04T09:21:28.387Z,9.63
2019-01-04T09:23:54.425Z,7.67
2019-01-04T09:26:20.966Z,9.60
2019-01-04T09:28:46.992Z,9.47
2019-01-04T09:31:12.973Z,7.93
2019-01-04T09:33:38.932Z,21.57
2019-01-04T09:36:04.942Z,9.23
2019-01-04T09:38:33.499Z,8.13
2019-01-04T09:41:22.945Z,11.13
2019-01-04T09:43:51.349Z,11.10
2019-01-04T09:46:17.313Z,10.83
2019-01-04T09:48:44.835Z,20.73
2019-01-04T09:51:10.951Z,12.13
2019-01-04T09:53:39.064Z,8.47
2019-01-04T09:56:05.216Z,9.80
2019-01-04T09:58:34.137Z,10.30
2019-01-04T10:01:04.039Z,16.23
2019-01-04T10:03:30.498Z,20.60
2019-01-04T10:05:56.511Z,21.60
2019-01-04T10:08:23.077Z,16.60
2019-01-04T10:10:49.008Z,13.57
2019-01-04T10:13:15.498Z,19.33
2019-01-04T10:15:44.663Z,14.53
2019-01-04T10:18:10.612Z,12.47
2019-01-04T10:20:36.905Z,18.10
2019-01-04T10:23:03.176Z,19.43
2019-01-04T10:25:29.117Z,19.53
2019-01-04T10:27:55.143Z,11.23
2019-01-04T10:30:23.599Z,10.03
2019-01-04T10:32:49.545Z,10.13
2019-01-04T10:35:15.549Z,14.23
2019-01-04T10:37:41.630Z,13.17
2019-01-04T10:40:11.025Z,11.63
2019-01-04T10:42:35.814Z,12.63
2019-01-04T10:45:03.252Z,12.00
2019-01-04T10:47:29.205Z,12.13
2019-01-04T10:49:56.735Z,18.77
2019-01-04T10:52:24.089Z,16.70
2019-01-04T10:54:50.332Z,11.70
2019-01-04T10:57:16.441Z,10.63
2019-01-04T10:59:42.976Z,11.27
2019-01-04T11:02:09.524Z,12.03
2019-01-04T11:04:35.500Z,13.37
2019-01-04T11:07:01.449Z,11.47
2019-01-04T11:09:27.396Z,12.77
2019-01-04T11:11:53.404Z,9.80
2019-01-04T11:14:19.690Z,10.33
2019-01-04T11:16:45.642Z,8.80
2019-01-04T11:19:12.048Z,11.53
2019-01-04T11:21:38.928Z,13.33
2019-01-04T11:24:14.783Z,8.97
2019-01-04T11:26:44.544Z,9.13
2019-01-04T11:29:29.298Z,8.87
2019-01-04T11:32:20.593Z,12.10
2019-01-04T11:34:53.989Z,10.40
2019-01-04T11:37:29.385Z,15.37
2019-01-04T11:40:28.223Z,10.73
2019-01-04T11:43:07.201Z,10.70
2019-01-04T11:45:37.292Z,8.83
2019-01-04T11:48:12.856Z,9.83
2019-01-04T11:50:48.447Z,10.33
2019-01-04T11:53:15.513Z,18.83
2019-01-04T11:55:41.469Z,12.20
2019-01-04T11:58:07.974Z,10.13
2019-01-04T12:00:33.937Z,10.03
2019-01-04T12:02:59.884Z,9.17
2019-01-04T12:05:25.910Z,8.83
2019-01-04T12:07:51.852Z,8.27
2019-01-04T12:10:17.805Z,11.63
2019-01-04T12:12:43.895Z,18.93
2019-01-04T12:15:09.854Z,18.97
2019-01-04T12:17:35.874Z,12.73
2019-01-04T12:20:02.755Z,10.10
2019-01-04T12:22:30.037Z,19.43
2019-01-04T12:24:56.087Z,14.57
2019-01-04T12:27:22.471Z,19.67
2019-01-04T12:29:48.568Z,20.87
2019-01-04T12:32:16.458Z,13.40
2019-01-04T12:34:42.477Z,12.53
2019-01-04T12:37:10.961Z,13.57
2019-01-04T12:39:36.931Z,15.07
2019-01-04T12:42:03.462Z,20.03
2019-01-04T12:44:29.492Z,13.40
2019-01-04T12:46:55.440Z,16.87
2019-01-04T12:49:21.464Z,9.10
2019-01-04T12:51:47.414Z,13.10
2019-01-04T12:54:13.370Z,13.67
2019-01-04T12:56:39.665Z,14.90
2019-01-04T12:59:05.719Z,12.97
2019-01-04T13:01:31.671Z,16.03
2019-01-04T13:03:57.735Z,16.37
2019-01-04T13:06:23.737Z,11.40
2019-01-04T13:08:49.760Z,15.43
2019-01-04T13:11:16.122Z,12.27
2019-01-04T13:13:42.085Z,11.93
2019-01-04T13:16:08.339Z,9.57
2019-01-04T13:18:34.667Z,10.07
2019-01-04T13:21:00.627Z,10.83
2019-01-04T13:23:26.689Z,13.87
2019-01-04T13:25:52.714Z,11.30
2019-01-04T13:28:19.159Z,14.80
2019-01-04T13:30:45.727Z,13.33
2019-01-04T13:33:13.891Z,14.23
2019-01-04T13:35:39.938Z,13.13
2019-01-04T13:38:05.987Z,14.23
2019-01-04T13:40:31.975Z,11.53
2019-01-04T13:42:58.137Z,14.37
2019-01-04T13:45:24.089Z,12.23
2019-01-04T13:47:51.996Z,15.50
2019-01-04T13:50:18.278Z,28.27
2019-01-04T13:52:44.433Z,16.90
2019-01-04T13:55:10.442Z,21.80
2019-01-04T13:57:36.409Z,16.30
2019-01-04T14:00:03.675Z,20.00
2019-01-04T14:02:29.665Z,20.87
2019-01-04T14:04:55.625Z,21.50
2019-01-04T14:07:21.576Z,24.37
2019-01-04T14:09:47.871Z,22.50
2019-01-04T14:12:13.828Z,24.57
2019-01-04T14:14:39.829Z,29.90
2019-01-04T14:17:05.809Z,27.03
2019-01-04T14:19:31.755Z,21.83
2019-01-04T14:21:57.908Z,24.00
2019-01-04T14:24:23.901Z,19.43
2019-01-04T14:26:49.874Z,22.57
2019-01-04T14:29:15.811Z,22.97
2019-01-04T14:31:41.914Z,17.33
2019-01-04T14:34:08.315Z,15.33
2019-01-04T14:36:34.266Z,15.73
2019-01-04T14:39:00.394Z,15.40
2019-01-04T14:41:26.453Z,21.43
2019-01-04T14:43:52.410Z,33.53
2019-01-04T14:46:18.436Z,27.10
2019-01-04T14:48:44.805Z,36.20
2019-01-04T14:51:10.760Z,49.07
2019-01-04T14:53:36.765Z,37.67
2019-01-04T14:56:02.873Z,26.07
2019-01-04T14:58:29.124Z,25.53
2019-01-04T15:00:55.157Z,21.97
2019-01-04T15:03:21.096Z,20.43
2019-01-04T15:05:50.447Z,25.20
2019-01-04T15:08:15.135Z,15.50
2019-01-04T15:10:41.072Z,23.80
2019-01-04T15:13:07.300Z,22.47
2019-01-04T15:15:33.301Z,21.23
2019-01-04T15:17:59.324Z,26.10
2019-01-04T15:20:25.479Z,22.43
2019-01-04T15:22:51.510Z,18.40
2019-01-04T15:25:17.557Z,27.33
2019-01-04T15:27:43.527Z,20.17
2019-01-04T15:30:10.015Z,24.67
2019-01-04T15:32:35.966Z,23.20
2019-01-04T15:35:02.298Z,19.40
2019-01-04T15:37:28.303Z,15.87
2019-01-04T15:39:54.281Z,20.20
2019-01-04T15:42:20.236Z,21.23
2019-01-04T15:44:46.363Z,37.80
2019-01-04T15:47:12.317Z,41.63
2019-01-04T15:49:38.967Z,28.83
2019-01-04T15:52:04.968Z,31.40
2019-01-04T15:54:30.936Z,21.17
2019-01-04T15:56:57.133Z,18.87
2019-01-04T15:59:23.290Z,36.23
2019-01-04T16:01:49.281Z,31.93
2019-01-04T16:04:15.347Z,17.87
2019-01-04T16:06:41.768Z,22.80
2019-01-04T16:09:07.715Z,21.97
2019-01-04T16:11:33.790Z,18.87
2019-01-04T16:14:01.274Z,23.63
2019-01-04T16:16:27.799Z,18.63
2019-01-04T16:18:54.381Z,18.37
2019-01-04T16:21:20.564Z,21.53
2019-01-04T16:23:46.959Z,16.47
2019-01-04T16:26:13.417Z,19.00
2019-01-04T16:28:39.938Z,17.47
2019-01-04T16:31:06.030Z,18.10
2019-01-04T16:33:33.933Z,23.33
2019-01-04T16:36:00.744Z,25.17
2019-01-04T16:38:26.743Z,22.43
2019-01-04T16:40:52.799Z,24.73
2019-01-04T16:43:18.808Z,18.23
2019-01-04T16:45:45.551Z,23.33
2019-01-04T16:48:11.600Z,19.23
2019-01-04T16:50:38.926Z,19.57
2019-01-04T16:53:05.671Z,20.23
2019-01-04T16:55:31.649Z,21.43
2019-01-04T16:57:57.649Z,22.40
2019-01-04T17:00:23.802Z,25.80
2019-01-04T17:02:50.668Z,39.83
2019-01-04T17:05:17.861Z,30.27
2019-01-04T17:07:45.732Z,32.80
2019-01-04T17:10:12.084Z,31.27
2019-01-04T17:12:39.119Z,30.03
2019-01-04T17:15:05.270Z,28.07
2019-01-04T17:17:32.539Z,22.33
2019-01-04T17:19:58.939Z,33.87
2019-01-04T17:22:25.105Z,32.93
2019-01-04T17:24:51.058Z,42.17
2019-01-04T17:27:17.060Z,53.10
2019-01-04T17:29:43.009Z,39.63
2019-01-04T17:32:09.657Z,21.23
2019-01-04T17:34:35.896Z,27.33
2019-01-04T17:37:03.628Z,25.20
2019-01-04T17:39:31.503Z,29.40
2019-01-04T17:41:57.510Z,30.87
2019-01-04T17:44:23.463Z,32.60
2019-01-04T17:46:49.999Z,24.83
2019-01-04T17:49:16.460Z,26.17
2019-01-04T17:51:42.795Z,26.10
2019-01-04T17:54:08.750Z,43.07
2019-01-04T17:56:34.785Z,29.30
2019-01-04T17:59:02.318Z,37.77
2019-01-04T18:01:28.276Z,37.03
2019-01-04T18:03:54.297Z,44.83
2019-01-04T18:06:20.328Z,24.00
2019-01-04T18:08:46.642Z,25.33
2019-01-04T18:11:12.852Z,25.50
2019-01-04T18:13:38.823Z,49.03
2019-01-04T18:16:05.004Z,28.40
2019-01-04T18:18:31.170Z,27.97
2019-01-04T18:20:57.257Z,35.80
2019-01-04T18:23:23.642Z,31.50
2019-01-04T18:25:49.849Z,27.60
2019-01-04T18:28:16.178Z,28.73
2019-01-04T18:30:42.147Z,21.60
2019-01-04T18:33:08.311Z,19.77
2019-01-04T18:35:34.681Z,22.13
2019-01-04T18:38:01.620Z,24.03
2019-01-04T18:40:28.494Z,23.07
2019-01-04T18:42:55.001Z,20.33
2019-01-04T18:45:21.059Z,22.83
2019-01-04T18:47:49.962Z,19.60
2019-01-04T18:50:15.961Z,17.50
2019-01-04T18:52:41.910Z,15.60
2019-01-04T18:55:08.563Z,17.70
2019-01-04T18:57:34.646Z,16.00
2019-01-04T19:00:00.614Z,14.27
2019-01-04T19:02:26.639Z,15.73
2019-01-04T19:04:52.592Z,16.20
2019-01-04T19:07:18.936Z,23.40
2019-01-04T19:09:44.935Z,14.10
2019-01-04T19:12:10.888Z,18.10
2019-01-04T19:14:38.445Z,15.60
2019-01-04T19:17:05.347Z,19.83
2019-01-04T19:19:31.506Z,12.27
2019-01-04T19:21:57.469Z,16.00
2019-01-04T19:24:23.495Z,13.30
2019-01-04T19:26:49.459Z,17.00
2019-01-04T19:29:15.817Z,13.83
2019-01-04T19:31:42.167Z,23.67
2019-01-04T19:34:08.464Z,21.40
2019-01-04T19:36:34.529Z,38.30
2019-01-04T19:39:01.446Z,29.30
2019-01-04T19:41:27.404Z,26.57
2019-01-04T19:43:53.503Z,27.43
2019-01-04T19:46:19.499Z,16.53
2019-01-04T19:48:45.451Z,14.40
2019-01-04T19:51:11.405Z,23.07
2019-01-04T19:53:37.397Z,27.23
2019-01-04T19:56:03.843Z,25.23
2019-01-04T19:58:29.789Z,22.37
2019-01-04T20:00:55.803Z,43.37
2019-01-04T20:03:21.739Z,15.97
2019-01-04T20:06:08.862Z,12.10
2019-01-04T20:08:44.266Z,18.40
2019-01-04T20:11:49.940Z,12.93
2019-01-04T20:14:47.528Z,16.27
2019-01-04T20:17:30.503Z,15.90
2019-01-04T20:20:01.203Z,20.37
2019-01-04T20:22:37.902Z,23.43
2019-01-04T20:25:06.063Z,19.53
2019-01-04T20:27:36.717Z,20.37
2019-01-04T20:30:12.215Z,20.47
2019-01-04T20:32:42.988Z,18.17
2019-01-04T20:35:27.862Z,20.30
2019-01-04T20:37:55.742Z,22.37
2019-01-04T20:40:40.290Z,18.47
2019-01-04T20:43:11.035Z,19.27
2019-01-04T20:45:40.809Z,24.47
2019-01-04T20:48:08.725Z,23.23
2019-01-04T20:50:53.247Z,19.63
2019-01-04T20:53:30.982Z,21.00
2019-01-04T20:55:58.853Z,21.23
2019-01-04T20:58:41.482Z,20.23
2019-01-04T21:01:14.866Z,15.53
2019-01-04T21:03:54.832Z,65.20
2019-01-04T21:06:35.019Z,38.20
2019-01-04T21:09:22.045Z,21.03
2019-01-04T21:11:56.307Z,17.90
2019-01-04T21:14:27.016Z,17.07
2019-01-04T21:16:54.914Z,19.73
2019-01-04T21:19:26.648Z,16.37
2019-01-04T21:21:54.669Z,17.40
2019-01-04T21:24:38.106Z,17.63
2019-01-04T21:27:21.190Z,17.63
2019-01-04T21:30:06.341Z,16.87
2019-01-04T21:32:43.380Z,17.23
2019-01-04T21:35:18.285Z,18.00
2019-01-04T21:37:58.245Z,16.67
2019-01-04T21:40:28.225Z,18.00
2019-01-04T21:43:12.702Z,16.63
2019-01-04T21:45:49.464Z,16.50
2019-01-04T21:48:20.231Z,14.77
2019-01-04T21:50:49.745Z,15.70
2019-01-04T21:53:34.283Z,14.73
2019-01-04T21:56:20.289Z,22.67
2019-01-04T21:58:53.798Z,15.53
2019-01-04T22:01:27.442Z,17.10
2019-01-04T22:04:12.042Z,67.50
2019-01-04T22:06:53.260Z,11.97
2019-01-04T22:10:11.226Z,15.17
2019-01-04T22:12:57.862Z,9.77
2019-01-04T22:15:34.964Z,11.70
2019-01-04T22:18:03.963Z,13.40
2019-01-04T22:20:48.741Z,14.13
2019-01-04T22:23:33.298Z,9.87
2019-01-04T22:26:05.059Z,11.30
2019-01-04T22:28:35.984Z,13.20
2019-01-04T22:31:03.901Z,11.33
2019-01-04T22:33:50.640Z,14.40
2019-01-04T22:36:35.223Z,12.27
2019-01-04T22:39:03.240Z,12.37
2019-01-04T22:41:31.178Z,10.97
2019-01-04T22:44:04.300Z,10.43
2019-01-04T22:46:44.239Z,11.70
2019-01-04T22:49:27.255Z,11.07
2019-01-04T22:51:57.969Z,14.00
2019-01-04T22:54:38.860Z,14.10
2019-01-04T22:57:11.162Z,12.80
2019-01-04T22:59:44.645Z,8.97
2019-01-04T23:02:31.919Z,12.93
2019-01-04T23:05:02.824Z,12.70
2019-01-04T23:07:43.346Z,9.87
2019-01-04T23:10:11.228Z,12.77
2019-01-04T23:12:57.095Z,10.33
2019-01-04T23:15:30.890Z,9.60
2019-01-04T23:18:01.303Z,8.10
2019-01-04T23:20:29.160Z,12.70
2019-01-04T23:23:03.025Z,7.93
2019-01-04T23:25:31.014Z,9.63
2019-01-04T23:28:05.077Z,10.63
2019-01-04T23:30:49.437Z,9.53
2019-01-04T23:33:20.143Z,9.63
2019-01-04T23:35:54.089Z,9.63
2019-01-04T23:38:22.010Z,10.43
2019-01-04T23:44:04.048Z,10.07
2019-01-04T23:46:50.124Z,12.13
2019-01-04T23:49:34.755Z,11.93
2019-01-04T23:52:08.395Z,11.30
2019-01-04T23:54:42.406Z,15.90
2019-01-04T23:57:12.016Z,11.80
2019-01-04T23:59:39.868Z,12.83
